Airfield :
LOGIN :

Register | Disclaimer

   EN    FR    IT 

 










Legend :    VFR   Marginal VFR   IFR   Intensive IFR   Very Intensive IFR
Visi :
Ceiling :
>= 8 km
>= 3000ft
5 to 8 km
1000 to 3000 ft
1500m to 5 km
500 to 1000 ft
800 to 1500m
200 to 500 ft
< 800m
< 200 ft
Symbols :   Thunderstorms  Fog  Heavy snow  Heavy precipitations  Wind > 20 kt
SIGMETs :     Misc.  Thunderstorms  Icing  Turbulence  Mountain Waves  Volcanic Ashes






- Airport Elevation : 436 ft
- IATA code : ANG


LFBU - Angoulême Brie Champniers

CURRENT METAR :
  • 170500Z AUTO 17005KT 9999 RA FEW022/// SCT039/// BKN045/// ///TCU 14/12 Q1012

EXPIRED METARs :
  • 170430Z AUTO 19005KT 150V240 6000 RA FEW019/// SCT025/// BKN030/// ///TCU 14/12 Q1012
  • 170400Z AUTO 19007KT 150V210 9999 -RA BKN023 OVC029 15/11 Q1012
  • 170330Z AUTO 19008KT 170V230 9999 OVC030/// ///TCU 15/11 Q1012
  • 170300Z AUTO 17007KT 140V200 9999 BKN035 OVC041 15/11 Q1012
  • 170230Z AUTO 17007KT 9999 OVC042 15/11 Q1012

TAF TAF LFBU
Valid from the 16 at 18:00 until the 17 at 18:00 UTC


161700Z 1618/1718 18010KT 9999 BKN040
TEMPO 1618/1716 -RA
PROB40
TEMPO 1707/1712 4000 -RA OVC006



MET'MAP, your aeronautical weather chart ! - Copyright ORBIFLY December 2007 - Disclaimer

ORBIFLY MET'MAP TEAM :

Programming & Development : Alexandra Zaïnal
Concept & Development : Baudouin d'Aumeries
Co-Development & Prog : Marc-Olivier Méhu
Technical & hardware support : Manuel Goepfert

Contact : metmap@orbifly.com




SOURCES & CREDITS :

   NOAA